createdAt,value
2019-05-26T00:01:27.145Z,10.63
2019-05-26T00:03:56.468Z,10.47
2019-05-26T00:06:25.711Z,12.13
2019-05-26T00:08:54.967Z,12.10
2019-05-26T00:11:24.315Z,16.97
2019-05-26T00:13:53.615Z,12.03
2019-05-26T00:16:22.882Z,12.77
2019-05-26T00:18:52.122Z,12.37
2019-05-26T00:21:21.387Z,12.23
2019-05-26T00:23:50.630Z,12.50
2019-05-26T00:26:19.931Z,12.27
2019-05-26T00:29:08.553Z,13.17
2019-05-26T00:31:37.884Z,12.30
2019-05-26T00:34:07.150Z,12.77
2019-05-26T00:36:36.416Z,13.67
2019-05-26T00:39:13.186Z,12.37
2019-05-26T00:41:42.435Z,12.87
2019-05-26T00:44:12.031Z,11.43
2019-05-26T00:46:41.421Z,12.87
2019-05-26T00:49:10.790Z,12.90
2019-05-26T00:51:40.185Z,12.90
2019-05-26T00:54:09.502Z,12.23
2019-05-26T00:56:38.762Z,14.93
2019-05-26T00:59:08.172Z,12.63
2019-05-26T01:01:37.470Z,14.60
2019-05-26T01:04:06.786Z,12.97
2019-05-26T01:06:36.025Z,12.50
2019-05-26T01:09:07.804Z,13.27
2019-05-26T01:11:37.074Z,12.77
2019-05-26T01:14:06.492Z,14.93
2019-05-26T01:16:35.794Z,13.87
2019-05-26T01:19:05.124Z,12.50
2019-05-26T01:21:34.507Z,11.07
2019-05-26T01:24:03.900Z,11.90
2019-05-26T01:26:33.235Z,10.90
2019-05-26T01:29:03.063Z,13.10
2019-05-26T01:31:41.333Z,12.37
2019-05-26T01:34:10.587Z,12.87
2019-05-26T01:36:40.018Z,11.20
2019-05-26T01:39:09.358Z,11.80
2019-05-26T01:41:38.595Z,11.67
2019-05-26T01:44:07.882Z,10.40
2019-05-26T01:46:37.132Z,12.70
2019-05-26T01:49:06.388Z,12.57
2019-05-26T01:51:35.650Z,11.93
2019-05-26T01:54:42.363Z,11.97
2019-05-26T01:57:11.673Z,18.20
2019-05-26T02:00:00.282Z,13.33
2019-05-26T02:02:29.526Z,11.80
2019-05-26T02:04:58.795Z,11.63
2019-05-26T02:07:28.042Z,11.87
2019-05-26T02:09:57.323Z,12.90
2019-05-26T02:12:26.564Z,11.63
2019-05-26T02:14:55.815Z,11.00
2019-05-26T02:17:25.129Z,11.30
2019-05-26T02:19:54.522Z,10.30
2019-05-26T02:22:23.787Z,11.83
2019-05-26T02:24:53.074Z,13.73
2019-05-26T02:27:23.817Z,11.30
2019-05-26T02:29:53.208Z,10.07
2019-05-26T02:32:22.505Z,11.60
2019-05-26T02:34:51.734Z,9.67
2019-05-26T02:37:21.000Z,11.53
2019-05-26T02:39:50.235Z,10.43
2019-05-26T02:42:39.003Z,10.80
2019-05-26T02:45:10.763Z,10.80
2019-05-26T02:47:59.567Z,12.03
2019-05-26T02:50:28.947Z,13.63
2019-05-26T02:52:58.286Z,11.03
2019-05-26T02:55:46.983Z,10.50
2019-05-26T02:58:16.324Z,10.63
2019-05-26T03:00:46.946Z,10.57
2019-05-26T03:03:16.807Z,10.50
2019-05-26T03:05:46.785Z,11.83
2019-05-26T03:08:16.777Z,10.23
2019-05-26T03:10:46.567Z,11.50
2019-05-26T03:13:17.550Z,12.20
2019-05-26T03:15:48.631Z,11.30
2019-05-26T03:18:18.073Z,12.63
2019-05-26T03:21:06.665Z,12.13
2019-05-26T03:23:35.939Z,11.93
2019-05-26T03:26:05.250Z,10.97
2019-05-26T03:28:34.549Z,16.20
2019-05-26T03:31:03.947Z,11.97
2019-05-26T03:33:33.376Z,11.47
2019-05-26T03:36:33.698Z,12.33
2019-05-26T03:39:04.610Z,12.70
2019-05-26T03:41:33.927Z,12.67
2019-05-26T03:44:03.184Z,12.17
2019-05-26T03:46:32.462Z,12.87
2019-05-26T03:49:01.696Z,12.13
2019-05-26T03:51:30.971Z,13.13
2019-05-26T03:54:00.293Z,13.70
2019-05-26T03:56:29.682Z,13.90
2019-05-26T03:58:59.053Z,13.53
2019-05-26T04:01:28.636Z,14.20
2019-05-26T04:03:57.902Z,15.10
2019-05-26T04:06:27.152Z,13.57
2019-05-26T04:08:56.428Z,13.30
2019-05-26T04:11:25.737Z,14.40
2019-05-26T04:13:55.157Z,16.43
2019-05-26T04:16:24.508Z,13.60
2019-05-26T04:18:53.765Z,14.60
2019-05-26T04:21:23.095Z,15.17
2019-05-26T04:23:52.351Z,14.63
2019-05-26T04:26:21.601Z,18.43
2019-05-26T04:28:50.914Z,17.10
2019-05-26T04:31:20.218Z,18.77
2019-05-26T04:33:49.478Z,18.30
2019-05-26T04:36:18.717Z,19.23
2019-05-26T04:38:47.965Z,18.93
2019-05-26T04:41:17.217Z,19.10
2019-05-26T04:43:46.593Z,20.20
2019-05-26T04:46:15.844Z,18.73
2019-05-26T04:48:45.104Z,20.40
2019-05-26T04:51:14.328Z,21.60
2019-05-26T04:53:43.582Z,25.93
2019-05-26T04:56:12.838Z,23.30
2019-05-26T04:58:42.098Z,22.27
2019-05-26T05:01:11.364Z,22.03
2019-05-26T05:03:40.667Z,24.93
2019-05-26T05:06:10.060Z,22.73
2019-05-26T05:08:39.319Z,21.70
2019-05-26T05:11:08.676Z,28.57
2019-05-26T05:13:37.921Z,26.67
2019-05-26T05:16:07.428Z,26.93
2019-05-26T05:18:36.701Z,25.20
2019-05-26T05:21:08.543Z,28.03
2019-05-26T05:23:37.798Z,29.73
2019-05-26T05:26:11.206Z,28.40
2019-05-26T05:28:45.023Z,26.80
2019-05-26T05:31:15.839Z,30.23
2019-05-26T05:33:45.082Z,34.00
2019-05-26T05:36:17.038Z,30.97
2019-05-26T05:38:46.173Z,29.10
2019-05-26T05:41:15.548Z,29.30
2019-05-26T05:43:44.827Z,33.03
2019-05-26T05:46:15.635Z,35.80
2019-05-26T05:48:45.085Z,33.67
2019-05-26T05:51:16.096Z,35.27
2019-05-26T05:53:47.114Z,31.70
2019-05-26T05:56:16.534Z,33.07
2019-05-26T05:58:48.126Z,30.50
2019-05-26T06:01:17.585Z,30.47
2019-05-26T06:03:49.940Z,31.30
2019-05-26T06:06:19.066Z,29.43
2019-05-26T06:08:48.367Z,28.80
2019-05-26T06:14:48.659Z,29.27
2019-05-26T06:17:17.927Z,26.43
2019-05-26T06:19:47.280Z,28.83
2019-05-26T06:22:17.348Z,28.20
2019-05-26T06:24:47.838Z,26.13
2019-05-26T06:27:17.688Z,25.97
2019-05-26T06:29:58.457Z,28.03
2019-05-26T06:32:20.063Z,28.03
2019-05-26T06:34:49.381Z,28.10
2019-05-26T06:37:18.716Z,29.10
2019-05-26T06:39:47.968Z,28.00
2019-05-26T06:42:36.577Z,28.53
2019-05-26T06:45:07.732Z,28.67
2019-05-26T06:47:37.007Z,28.70
2019-05-26T06:50:06.812Z,29.27
2019-05-26T06:52:36.068Z,30.47
2019-05-26T06:55:06.584Z,31.60
2019-05-26T06:57:35.844Z,32.23
2019-05-26T07:00:06.426Z,30.20
2019-05-26T07:02:35.740Z,31.27
2019-05-26T07:05:06.915Z,29.80
2019-05-26T07:07:36.281Z,29.40
2019-05-26T07:10:06.607Z,29.90
2019-05-26T07:12:36.121Z,30.23
2019-05-26T07:15:07.687Z,28.50
2019-05-26T07:17:37.011Z,29.60
2019-05-26T07:20:07.135Z,30.83
2019-05-26T07:22:36.479Z,29.37
2019-05-26T07:25:07.736Z,30.20
2019-05-26T07:27:37.132Z,30.37
2019-05-26T07:30:07.518Z,26.97
2019-05-26T07:32:36.753Z,27.83
2019-05-26T07:35:07.363Z,27.17
2019-05-26T07:37:36.661Z,28.33
2019-05-26T07:40:06.460Z,27.83
2019-05-26T07:42:35.900Z,24.63
2019-05-26T07:45:08.562Z,24.50
2019-05-26T07:47:37.872Z,29.13
2019-05-26T07:50:08.695Z,23.00
2019-05-26T07:52:38.083Z,22.30
2019-05-26T07:55:07.681Z,22.23
2019-05-26T07:57:37.010Z,22.40
2019-05-26T08:00:07.246Z,24.77
2019-05-26T08:02:36.589Z,21.13
2019-05-26T08:05:07.563Z,20.37
2019-05-26T08:07:36.900Z,20.63
2019-05-26T08:10:08.257Z,19.30
2019-05-26T08:12:38.485Z,19.03
2019-05-26T08:15:08.250Z,20.13
2019-05-26T08:17:37.590Z,18.90
2019-05-26T08:20:07.458Z,18.73
2019-05-26T08:22:36.831Z,16.23
2019-05-26T08:25:25.467Z,16.40
2019-05-26T08:27:54.742Z,16.00
2019-05-26T08:30:24.044Z,16.83
2019-05-26T08:32:53.336Z,15.23
2019-05-26T08:35:22.710Z,16.30
2019-05-26T08:37:51.989Z,20.03
2019-05-26T08:40:21.414Z,15.07
2019-05-26T08:42:51.768Z,12.20
2019-05-26T08:45:23.359Z,11.47
2019-05-26T08:47:54.041Z,10.73
2019-05-26T08:50:23.662Z,9.67
2019-05-26T08:52:53.028Z,10.23
2019-05-26T08:55:22.591Z,8.93
2019-05-26T08:57:51.960Z,8.03
2019-05-26T09:00:40.532Z,6.57
2019-05-26T09:03:09.871Z,6.30
2019-05-26T09:05:39.186Z,6.40
2019-05-26T09:08:08.540Z,5.63
2019-05-26T09:10:37.886Z,5.80
2019-05-26T09:13:07.146Z,5.07
2019-05-26T09:15:36.437Z,6.73
2019-05-26T09:18:05.825Z,5.13
2019-05-26T09:20:35.068Z,4.70
2019-05-26T09:23:04.492Z,4.40
2019-05-26T09:25:33.794Z,4.97
2019-05-26T09:28:03.170Z,3.80
2019-05-26T09:30:32.472Z,4.33
2019-05-26T09:33:01.823Z,4.20
2019-05-26T09:35:31.099Z,5.20
2019-05-26T09:38:00.425Z,3.77
2019-05-26T09:40:29.770Z,4.60
2019-05-26T09:42:59.050Z,5.53
2019-05-26T09:45:28.359Z,4.97
2019-05-26T09:47:57.610Z,7.03
2019-05-26T09:50:26.876Z,4.93
2019-05-26T09:52:56.229Z,5.13
2019-05-26T09:55:25.536Z,6.10
2019-05-26T09:57:54.794Z,6.13
2019-05-26T10:00:24.995Z,4.83
2019-05-26T10:02:54.298Z,4.10
2019-05-26T10:05:42.920Z,3.83
2019-05-26T10:08:12.231Z,6.50
2019-05-26T10:10:41.595Z,5.50
2019-05-26T10:13:10.939Z,4.53
2019-05-26T10:15:40.163Z,4.97
2019-05-26T10:18:09.422Z,4.20
2019-05-26T10:20:38.694Z,4.27
2019-05-26T10:23:08.073Z,4.63
2019-05-26T10:25:37.354Z,4.27
2019-05-26T10:28:06.619Z,3.30
2019-05-26T10:30:35.996Z,6.53
2019-05-26T10:33:05.622Z,2.97
2019-05-26T10:35:54.330Z,2.80
2019-05-26T10:38:23.950Z,3.07
2019-05-26T10:40:53.400Z,3.83
2019-05-26T10:43:22.675Z,2.80
2019-05-26T10:45:53.086Z,3.30
2019-05-26T10:48:22.531Z,2.93
2019-05-26T10:50:51.891Z,3.97
2019-05-26T10:53:21.272Z,3.30
2019-05-26T10:55:50.602Z,3.90
2019-05-26T10:58:19.868Z,3.10
2019-05-26T11:00:49.198Z,2.90
2019-05-26T11:03:18.470Z,3.47
2019-05-26T11:05:47.893Z,3.40
2019-05-26T11:08:19.285Z,3.90
2019-05-26T11:10:50.823Z,4.10
2019-05-26T11:13:21.759Z,4.80
2019-05-26T11:16:10.440Z,3.87
2019-05-26T11:18:39.705Z,6.07
2019-05-26T11:21:11.770Z,4.10
2019-05-26T11:23:39.970Z,4.70
2019-05-26T11:26:09.219Z,4.73
2019-05-26T11:28:38.502Z,6.00
2019-05-26T11:31:07.939Z,6.10
2019-05-26T11:33:37.253Z,5.20
2019-05-26T11:36:06.594Z,5.30
2019-05-26T11:38:35.916Z,4.70
2019-05-26T11:41:05.266Z,5.00
2019-05-26T11:43:53.853Z,4.90
2019-05-26T11:46:23.214Z,5.33
2019-05-26T11:48:52.517Z,4.40
2019-05-26T11:51:21.756Z,7.53
2019-05-26T11:53:51.016Z,5.00
2019-05-26T11:56:20.382Z,5.13
2019-05-26T11:58:49.729Z,6.87
2019-05-26T12:01:22.629Z,4.73
2019-05-26T12:03:50.060Z,4.30
2019-05-26T12:06:19.358Z,4.60
2019-05-26T12:08:48.839Z,4.90
2019-05-26T12:11:18.160Z,4.47
2019-05-26T12:13:47.429Z,4.90
2019-05-26T12:16:16.833Z,3.80
2019-05-26T12:18:46.178Z,3.33
2019-05-26T12:21:15.440Z,5.47
2019-05-26T12:23:44.862Z,5.13
2019-05-26T12:26:14.420Z,4.27
2019-05-26T12:28:43.691Z,8.03
2019-05-26T12:31:13.105Z,3.70
2019-05-26T12:33:43.257Z,4.83
2019-05-26T12:36:12.595Z,3.40
2019-05-26T12:38:50.745Z,3.70
2019-05-26T12:41:21.225Z,3.10
2019-05-26T12:43:52.064Z,3.30
2019-05-26T12:46:21.436Z,3.30
2019-05-26T12:48:50.763Z,3.37
2019-05-26T12:51:28.089Z,4.47
2019-05-26T12:54:12.677Z,2.97
2019-05-26T12:56:42.009Z,3.53
2019-05-26T12:59:11.487Z,3.60
2019-05-26T13:01:40.859Z,2.80
2019-05-26T13:04:10.103Z,3.20
2019-05-26T13:06:42.199Z,3.80
2019-05-26T13:09:14.775Z,6.70
2019-05-26T13:12:03.400Z,3.27
2019-05-26T13:14:32.675Z,3.70
2019-05-26T13:17:02.144Z,3.77
2019-05-26T13:19:31.427Z,3.90
2019-05-26T13:22:00.666Z,3.37
2019-05-26T13:24:30.017Z,4.03
2019-05-26T13:26:59.246Z,2.87
2019-05-26T13:29:28.503Z,4.07
2019-05-26T13:31:57.743Z,3.00
2019-05-26T13:34:26.991Z,4.20
2019-05-26T13:36:56.249Z,3.47
2019-05-26T13:39:25.582Z,4.60
2019-05-26T13:41:54.883Z,3.97
2019-05-26T13:44:24.312Z,5.30
2019-05-26T13:46:53.604Z,3.80
2019-05-26T13:49:22.962Z,3.80
2019-05-26T13:51:52.245Z,3.00
2019-05-26T13:54:21.679Z,3.90
2019-05-26T13:56:51.113Z,3.83
2019-05-26T13:59:20.347Z,4.13
2019-05-26T14:01:49.647Z,4.20
2019-05-26T14:04:18.991Z,4.03
2019-05-26T14:06:48.243Z,4.50
2019-05-26T14:09:17.513Z,4.20
2019-05-26T14:11:46.886Z,3.93
2019-05-26T14:14:16.746Z,4.63
2019-05-26T14:16:47.084Z,3.57
2019-05-26T14:19:16.675Z,6.10
2019-05-26T14:21:45.923Z,4.23
2019-05-26T14:24:15.251Z,3.50
2019-05-26T14:26:44.544Z,4.23
2019-05-26T14:29:14.065Z,3.50
2019-05-26T14:31:43.392Z,6.60
2019-05-26T14:34:12.654Z,7.03
2019-05-26T14:37:01.303Z,5.13
2019-05-26T14:39:30.547Z,4.00
2019-05-26T14:41:59.869Z,3.33
2019-05-26T14:44:29.111Z,4.00
2019-05-26T14:46:58.343Z,3.90
2019-05-26T14:49:27.722Z,4.00
2019-05-26T14:51:56.970Z,5.90
2019-05-26T14:54:26.604Z,4.13
2019-05-26T14:56:55.827Z,8.60
2019-05-26T14:59:25.112Z,4.37
2019-05-26T15:01:54.380Z,5.10
2019-05-26T15:04:23.854Z,5.20
2019-05-26T15:06:53.232Z,4.70
2019-05-26T15:09:25.473Z,4.43
2019-05-26T15:11:53.460Z,4.10
2019-05-26T15:14:22.809Z,4.50
2019-05-26T15:16:52.103Z,4.90
2019-05-26T15:19:21.469Z,4.73
2019-05-26T15:21:50.745Z,5.67
2019-05-26T15:24:20.089Z,5.07
2019-05-26T15:26:49.413Z,4.70
2019-05-26T15:29:18.789Z,5.33
2019-05-26T15:31:48.118Z,3.90
2019-05-26T15:34:36.748Z,4.93
2019-05-26T15:37:06.010Z,5.17
2019-05-26T15:39:35.319Z,5.07
2019-05-26T15:42:07.649Z,5.17
2019-05-26T15:44:35.850Z,4.57
2019-05-26T15:47:05.178Z,5.57
2019-05-26T15:49:55.511Z,4.93
2019-05-26T15:52:24.783Z,6.63
2019-05-26T15:54:54.122Z,5.03
2019-05-26T15:57:23.357Z,5.47
2019-05-26T15:59:54.576Z,5.87
2019-05-26T16:02:23.678Z,5.80
2019-05-26T16:04:52.950Z,5.50
2019-05-26T16:07:22.287Z,5.40
2019-05-26T16:09:51.561Z,5.70
2019-05-26T16:12:40.164Z,7.00
2019-05-26T16:15:10.064Z,5.33
2019-05-26T16:17:39.486Z,5.43
2019-05-26T16:20:09.542Z,7.30
2019-05-26T16:22:38.943Z,6.97
2019-05-26T16:25:08.818Z,4.50
2019-05-26T16:27:38.143Z,6.53
2019-05-26T16:30:08.349Z,4.90
2019-05-26T16:32:37.708Z,5.20
2019-05-26T16:35:07.624Z,5.30
2019-05-26T16:37:36.939Z,5.17
2019-05-26T16:40:07.909Z,7.00
2019-05-26T16:42:37.288Z,5.10
2019-05-26T16:45:07.926Z,5.57
2019-05-26T16:47:37.361Z,4.70
2019-05-26T16:50:07.747Z,5.10
2019-05-26T16:52:37.031Z,5.50
2019-05-26T16:55:07.594Z,5.50
2019-05-26T16:57:36.975Z,5.17
2019-05-26T17:00:10.247Z,5.87
2019-05-26T17:02:39.651Z,6.67
2019-05-26T17:05:08.963Z,5.63
2019-05-26T17:07:38.351Z,5.40
2019-05-26T17:10:08.138Z,5.13
2019-05-26T17:12:37.552Z,6.00
2019-05-26T17:15:07.776Z,5.70
2019-05-26T17:17:42.717Z,5.50
2019-05-26T17:20:12.601Z,5.60
2019-05-26T17:22:41.902Z,5.13
2019-05-26T17:25:11.695Z,5.40
2019-05-26T17:27:40.978Z,5.30
2019-05-26T17:30:10.897Z,5.90
2019-05-26T17:32:40.220Z,5.67
2019-05-26T17:35:09.631Z,5.63
2019-05-26T17:37:38.912Z,5.70
2019-05-26T17:40:08.453Z,5.30
2019-05-26T17:42:57.119Z,10.33
2019-05-26T17:45:26.624Z,7.00
2019-05-26T17:47:55.871Z,6.60
2019-05-26T17:50:25.250Z,5.67
2019-05-26T17:52:54.604Z,5.50
2019-05-26T17:55:23.911Z,6.17
2019-05-26T17:57:54.822Z,5.80
2019-05-26T18:00:24.164Z,5.90
2019-05-26T18:03:12.851Z,6.33
2019-05-26T18:05:42.277Z,5.70
2019-05-26T18:08:11.557Z,6.10
2019-05-26T18:10:40.823Z,6.73
2019-05-26T18:13:10.095Z,8.03
2019-05-26T18:15:39.506Z,7.40
2019-05-26T18:18:09.439Z,5.97
2019-05-26T18:20:38.673Z,5.40
2019-05-26T18:23:27.290Z,6.97
2019-05-26T18:25:57.114Z,5.10
2019-05-26T18:28:26.363Z,5.53
2019-05-26T18:31:14.985Z,5.63
2019-05-26T18:33:44.291Z,6.53
2019-05-26T18:36:13.616Z,7.70
2019-05-26T18:38:43.029Z,5.80
2019-05-26T18:41:12.453Z,6.00
2019-05-26T18:43:41.725Z,5.40
2019-05-26T18:46:11.002Z,5.40
2019-05-26T18:48:40.361Z,5.07
2019-05-26T18:51:09.763Z,4.83
2019-05-26T18:53:39.122Z,4.73
2019-05-26T18:56:08.421Z,4.97
2019-05-26T18:58:37.705Z,5.17
2019-05-26T19:01:08.568Z,5.23
2019-05-26T19:03:38.011Z,5.40
2019-05-26T19:06:07.303Z,4.70
2019-05-26T19:08:36.657Z,5.50
2019-05-26T19:11:05.923Z,4.87
2019-05-26T19:13:35.464Z,5.10
2019-05-26T19:16:05.017Z,5.43
2019-05-26T19:18:34.356Z,5.43
2019-05-26T19:21:03.967Z,5.47
2019-05-26T19:23:33.269Z,5.47
2019-05-26T19:26:02.507Z,5.20
2019-05-26T19:28:31.883Z,4.53
2019-05-26T19:31:01.191Z,5.27
2019-05-26T19:33:30.569Z,5.30
2019-05-26T19:35:59.904Z,5.80
2019-05-26T19:38:29.302Z,5.33
2019-05-26T19:40:58.713Z,4.97
2019-05-26T19:43:28.107Z,6.60
2019-05-26T19:45:57.444Z,5.43
2019-05-26T19:48:35.530Z,5.40
2019-05-26T19:50:57.892Z,5.43
2019-05-26T19:53:27.291Z,5.40
2019-05-26T19:55:56.563Z,5.90
2019-05-26T19:58:28.528Z,5.30
2019-05-26T20:00:56.918Z,5.40
2019-05-26T20:03:26.153Z,11.90
2019-05-26T20:05:55.506Z,5.43
2019-05-26T20:08:44.170Z,5.17
2019-05-26T20:11:13.495Z,7.63
2019-05-26T20:13:42.801Z,6.40
2019-05-26T20:16:12.208Z,9.17
2019-05-26T20:19:00.836Z,7.63
2019-05-26T20:21:30.165Z,5.37
2019-05-26T20:23:59.415Z,6.93
2019-05-26T20:26:28.695Z,6.10
2019-05-26T20:28:58.002Z,7.10
2019-05-26T20:31:27.285Z,6.73
2019-05-26T20:33:56.602Z,6.80
2019-05-26T20:36:25.874Z,6.80
2019-05-26T20:38:55.191Z,6.90
2019-05-26T20:41:24.456Z,6.60
2019-05-26T20:43:53.787Z,6.40
2019-05-26T20:46:42.360Z,6.50
2019-05-26T20:49:11.784Z,6.40
2019-05-26T20:51:41.086Z,5.50
2019-05-26T20:54:10.431Z,5.60
2019-05-26T20:56:39.753Z,6.07
2019-05-26T20:59:09.165Z,8.20
2019-05-26T21:01:44.455Z,5.97
2019-05-26T21:04:13.704Z,7.10
2019-05-26T21:06:43.072Z,6.60
2019-05-26T21:09:12.407Z,6.57
2019-05-26T21:11:41.820Z,6.53
2019-05-26T21:14:11.144Z,7.00
2019-05-26T21:16:41.743Z,6.67
2019-05-26T21:19:11.092Z,5.60
2019-05-26T21:21:40.386Z,6.40
2019-05-26T21:24:09.713Z,5.60
2019-05-26T21:26:38.999Z,5.87
2019-05-26T21:29:08.253Z,5.57
2019-05-26T21:31:37.559Z,5.73
2019-05-26T21:34:06.887Z,6.63
2019-05-26T21:36:36.138Z,5.60
2019-05-26T21:39:07.871Z,7.50
2019-05-26T21:41:37.206Z,5.47
2019-05-26T21:44:06.609Z,5.87
2019-05-26T21:46:35.939Z,4.90
2019-05-26T21:49:05.304Z,6.53
2019-05-26T21:51:34.850Z,4.30
2019-05-26T21:54:04.344Z,5.27
2019-05-26T21:56:33.673Z,5.90
2019-05-26T21:59:03.007Z,4.50
2019-05-26T22:01:32.633Z,4.80
2019-05-26T22:04:01.884Z,5.60
2019-05-26T22:06:31.178Z,4.80
2019-05-26T22:09:00.582Z,5.43
2019-05-26T22:11:29.812Z,6.07
2019-05-26T22:13:59.076Z,6.33
2019-05-26T22:16:47.644Z,5.80
2019-05-26T22:19:16.910Z,7.73
2019-05-26T22:21:46.168Z,8.33
2019-05-26T22:24:15.513Z,7.53
2019-05-26T22:26:46.352Z,7.03
2019-05-26T22:29:15.722Z,8.17
2019-05-26T22:31:45.034Z,7.07
2019-05-26T22:34:18.198Z,8.93
2019-05-26T22:36:47.495Z,12.83
2019-05-26T22:39:16.769Z,7.70
2019-05-26T22:41:46.004Z,8.47
2019-05-26T22:44:15.343Z,8.13
2019-05-26T22:46:44.586Z,9.03
2019-05-26T22:49:13.839Z,7.80
2019-05-26T22:51:43.095Z,7.50
2019-05-26T22:54:31.753Z,7.17
2019-05-26T22:57:01.106Z,6.77
2019-05-26T22:59:30.608Z,6.10
2019-05-26T23:01:59.897Z,5.70
2019-05-26T23:04:29.130Z,6.07
2019-05-26T23:06:59.647Z,6.93
2019-05-26T23:09:28.904Z,7.50
2019-05-26T23:11:58.151Z,8.20
2019-05-26T23:14:27.467Z,6.07
2019-05-26T23:17:16.147Z,7.27
2019-05-26T23:19:45.395Z,6.50
2019-05-26T23:22:33.982Z,7.30
2019-05-26T23:25:03.864Z,6.30
2019-05-26T23:27:33.167Z,7.77
2019-05-26T23:30:03.051Z,6.10
2019-05-26T23:32:33.843Z,6.17
2019-05-26T23:35:03.962Z,6.60
2019-05-26T23:37:33.364Z,5.10
2019-05-26T23:40:02.616Z,5.10
2019-05-26T23:42:31.846Z,4.80
2019-05-26T23:45:01.111Z,5.53
2019-05-26T23:47:30.365Z,6.80
2019-05-26T23:49:59.695Z,5.23
2019-05-26T23:52:28.952Z,5.63
2019-05-26T23:54:58.215Z,6.60
2019-05-26T23:57:27.452Z,5.70
2019-05-26T23:59:56.759Z,7.30
